Bolan, Iowa
Current Conditions -  °F | °C
As of 10:53 PM on Thursday 30 Oct 2014 (Local Time) from KMCW Reporting Station
Broken Clouds Broken Clouds  
Wind Chill: 28°   Ceiling: 3900
Heat Index: 39°   Visibility: 10mi
Dew Point: 28°   Wind: 24mph
Humidity: 65%   Direction: 340°NNW
Pressure: 30.26"   Gusts: 36mph
Location:  43.3847°N, 93.1428°W
Report Text: KMCW 310353Z AUTO 34021G31KT 10SM BKN039 04/M02 A3026 RMK AO2 PK WND 34031/0347 SLP251 T00391022 $
Loading
Personal Weather Stations






























Interactive Weather Map
Tropical Storm Tracking
New forecast layout! Learn more

10-Day Weather Forecast

Advertisements
Track Severe Weather on mobile